createdAt,value
2022-12-11T00:03:21.678Z,100280.66
2022-12-11T00:08:28.849Z,100284.20
2022-12-11T00:13:36.043Z,100284.14
2022-12-11T00:18:43.150Z,100279.59
2022-12-11T00:23:51.395Z,100270.82
2022-12-11T00:28:59.252Z,100266.81
2022-12-11T00:34:04.775Z,100268.48
2022-12-11T00:39:11.885Z,100263.06
2022-12-11T00:44:19.155Z,100261.14
2022-12-11T00:49:26.514Z,100263.34
2022-12-11T00:54:34.972Z,100262.58
2022-12-11T00:59:42.557Z,100264.45
2022-12-11T01:04:49.661Z,100264.82
2022-12-11T01:10:14.573Z,100260.66
2022-12-11T01:15:23.109Z,100253.58
2022-12-11T01:20:31.146Z,100253.01
2022-12-11T01:25:39.335Z,100250.04
2022-12-11T01:30:46.383Z,100253.47
2022-12-11T01:35:53.382Z,100251.41
2022-12-11T01:41:00.410Z,100244.39
2022-12-11T01:46:07.693Z,100241.41
2022-12-11T01:51:15.328Z,100241.95
2022-12-11T01:56:25.250Z,100240.43
2022-12-11T02:01:36.742Z,100247.76
2022-12-11T02:06:46.876Z,100257.42
2022-12-11T02:12:02.655Z,100256.02
2022-12-11T02:17:16.049Z,100255.60
2022-12-11T02:22:45.390Z,100255.96
2022-12-11T02:27:59.774Z,100258.86
2022-12-11T02:33:08.758Z,100258.85
2022-12-11T02:38:21.059Z,100247.67
2022-12-11T02:43:28.787Z,100237.42
2022-12-11T02:48:37.624Z,100230.97
2022-12-11T02:53:46.452Z,100239.31
2022-12-11T02:58:59.123Z,100234.89
2022-12-11T03:04:06.231Z,100230.25
2022-12-11T03:09:14.894Z,100234.04
2022-12-11T03:14:22.150Z,100226.41
2022-12-11T03:19:36.688Z,100213.41
2022-12-11T03:24:47.665Z,100209.05
2022-12-11T03:30:00.040Z,100204.27
2022-12-11T03:35:15.137Z,100197.94
2022-12-11T03:40:26.081Z,100203.65
2022-12-11T03:45:34.312Z,100204.73
2022-12-11T03:50:43.351Z,100195.23
2022-12-11T03:55:52.842Z,100191.84
2022-12-11T04:00:59.872Z,100195.85
2022-12-11T04:06:07.112Z,100198.10
2022-12-11T04:11:31.805Z,100196.44
2022-12-11T04:16:38.862Z,100199.57
2022-12-11T04:22:03.575Z,100197.08
2022-12-11T04:27:10.699Z,100198.48
2022-12-11T04:32:17.660Z,100195.54
2022-12-11T04:37:24.638Z,100186.34
2022-12-11T04:42:31.696Z,100184.42
2022-12-11T04:47:39.698Z,100188.89
2022-12-11T04:52:47.228Z,100190.67
2022-12-11T04:57:54.514Z,100193.45
2022-12-11T05:03:01.697Z,100194.67
2022-12-11T05:08:09.535Z,100196.62
2022-12-11T05:13:14.965Z,100192.66
2022-12-11T05:18:22.749Z,100190.60
2022-12-11T05:23:30.997Z,100182.90
2022-12-11T05:28:39.906Z,100173.45
2022-12-11T05:33:47.931Z,100164.05
2022-12-11T05:38:55.477Z,100160.64
2022-12-11T05:44:02.901Z,100153.42
2022-12-11T05:49:11.803Z,100153.77
2022-12-11T05:54:19.113Z,100142.95
2022-12-11T05:59:26.427Z,100144.27
2022-12-11T06:04:33.404Z,100144.14
2022-12-11T06:09:40.452Z,100142.61
2022-12-11T06:14:47.517Z,100144.37
2022-12-11T06:19:54.625Z,100144.50
2022-12-11T06:25:01.756Z,100138.46
2022-12-11T06:30:11.239Z,100147.04
2022-12-11T06:35:18.583Z,100153.02
2022-12-11T06:40:25.633Z,100151.55
2022-12-11T06:45:32.781Z,100148.77
2022-12-11T06:50:40.873Z,100153.41
2022-12-11T06:55:47.926Z,100159.02
2022-12-11T07:00:54.988Z,100161.73
2022-12-11T07:06:04.488Z,100168.06
2022-12-11T07:11:13.716Z,100175.65
2022-12-11T07:16:21.724Z,100166.83
2022-12-11T07:21:28.789Z,100162.40
2022-12-11T07:26:36.060Z,100157.46
2022-12-11T07:31:43.219Z,100149.11
2022-12-11T07:36:50.299Z,100143.31
2022-12-11T07:41:57.371Z,100151.94
2022-12-11T07:47:04.437Z,100147.85
2022-12-11T07:52:11.543Z,100149.37
2022-12-11T07:57:18.685Z,100156.13
2022-12-11T08:02:25.720Z,100152.52
2022-12-11T08:07:34.741Z,100151.79
2022-12-11T08:12:41.732Z,100151.11
2022-12-11T08:17:48.759Z,100148.73
2022-12-11T08:22:59.150Z,100149.72
2022-12-11T08:28:06.929Z,100154.06
2022-12-11T08:33:13.975Z,100150.00
2022-12-11T08:38:25.444Z,100145.64
2022-12-11T08:43:34.501Z,100143.38
2022-12-11T08:48:43.533Z,100135.09
2022-12-11T08:53:52.615Z,100136.04
2022-12-11T08:59:02.917Z,100144.82
2022-12-11T09:04:09.892Z,100149.28
2022-12-11T09:09:16.990Z,100148.94
2022-12-11T09:14:24.017Z,100147.16
2022-12-11T09:19:32.510Z,100142.55
2022-12-11T09:24:39.897Z,100134.98
2022-12-11T09:29:47.002Z,100126.86
2022-12-11T09:34:54.650Z,100121.67
2022-12-11T09:40:05.564Z,100120.63
2022-12-11T09:45:17.885Z,100110.54
2022-12-11T09:50:33.930Z,100099.05
2022-12-11T09:55:50.416Z,100089.80
2022-12-11T10:01:04.511Z,100084.02
2022-12-11T10:06:20.518Z,100083.73
2022-12-11T10:11:43.410Z,100074.09
2022-12-11T10:16:54.073Z,100062.03
2022-12-11T10:22:04.509Z,100047.08
2022-12-11T10:27:20.087Z,100037.88
2022-12-11T10:32:33.650Z,100033.70
2022-12-11T10:37:42.330Z,100027.98
2022-12-11T10:42:57.263Z,100025.73
2022-12-11T10:48:29.101Z,100016.67
2022-12-11T10:54:23.679Z,100006.15
2022-12-11T10:59:45.592Z,99989.25
2022-12-11T11:04:59.404Z,99975.80
2022-12-11T11:10:19.223Z,99964.51
2022-12-11T11:15:29.753Z,99955.38
2022-12-11T11:20:37.293Z,99949.63
2022-12-11T11:25:54.065Z,99942.95
2022-12-11T11:31:05.248Z,99938.52
2022-12-11T11:36:24.088Z,99942.20
2022-12-11T11:41:42.191Z,99937.61
2022-12-11T11:46:58.367Z,99934.59
2022-12-11T11:52:13.899Z,99935.77
2022-12-11T11:57:34.068Z,99939.72
2022-12-11T12:02:42.235Z,99938.55
2022-12-11T12:08:00.094Z,99935.98
2022-12-11T12:13:47.663Z,99927.55
2022-12-11T12:18:53.852Z,99918.20
2022-12-11T12:24:12.309Z,99917.98
2022-12-11T12:29:30.302Z,99914.04
2022-12-11T12:34:52.915Z,99915.14
2022-12-11T12:40:15.965Z,99916.03
2022-12-11T12:45:30.322Z,99912.33
2022-12-11T12:50:43.018Z,99913.00
2022-12-11T12:55:51.511Z,99908.69
2022-12-11T13:01:09.983Z,99903.50
2022-12-11T13:06:17.210Z,99900.73
2022-12-11T13:11:35.349Z,99904.73
2022-12-11T13:16:43.944Z,99897.98
2022-12-11T13:22:00.482Z,99895.91
2022-12-11T13:27:23.988Z,99898.98
2022-12-11T13:32:34.388Z,99896.99
2022-12-11T13:37:44.662Z,99893.46
2022-12-11T13:42:56.103Z,99883.14
2022-12-11T13:48:06.062Z,99880.36
2022-12-11T13:53:19.305Z,99881.58
2022-12-11T13:58:26.828Z,99888.81
2022-12-11T14:03:35.273Z,99889.77
2022-12-11T14:08:46.374Z,99889.86
2022-12-11T14:13:53.428Z,99894.14
2022-12-11T14:19:04.959Z,99899.05
2022-12-11T14:24:15.446Z,99900.84
2022-12-11T14:29:30.845Z,99897.58
2022-12-11T14:34:43.697Z,99888.73
2022-12-11T14:39:57.408Z,99874.61
2022-12-11T14:45:08.628Z,99868.02
2022-12-11T14:50:22.648Z,99864.90
2022-12-11T14:55:33.291Z,99864.70
2022-12-11T15:00:40.748Z,99860.94
2022-12-11T15:05:55.002Z,99863.56
2022-12-11T15:11:09.380Z,99863.55
2022-12-11T15:16:17.663Z,99860.16
2022-12-11T15:21:32.612Z,99854.02
2022-12-11T15:26:45.325Z,99853.35
2022-12-11T15:32:02.540Z,99857.74
2022-12-11T15:37:20.530Z,99847.89
2022-12-11T15:42:33.876Z,99849.29
2022-12-11T15:47:41.049Z,99848.20
2022-12-11T15:52:48.763Z,99847.92
2022-12-11T15:57:58.691Z,99846.56
2022-12-11T16:03:05.902Z,99842.34
2022-12-11T16:08:16.373Z,99845.45
2022-12-11T16:13:23.699Z,99843.60
2022-12-11T16:18:33.719Z,99847.02
2022-12-11T16:23:40.794Z,99842.96
2022-12-11T16:28:47.864Z,99842.26
2022-12-11T16:33:54.931Z,99844.73
2022-12-11T16:39:02.315Z,99844.75
2022-12-11T16:44:10.708Z,99843.34
2022-12-11T16:49:17.779Z,99837.09
2022-12-11T16:54:24.868Z,99832.73
2022-12-11T16:59:36.930Z,99827.41
2022-12-11T17:04:47.036Z,99821.98
2022-12-11T17:09:57.736Z,99817.95
2022-12-11T17:15:05.279Z,99811.49
2022-12-11T17:20:14.233Z,99805.94
2022-12-11T17:25:22.676Z,99801.39
2022-12-11T17:30:29.730Z,99796.77
2022-12-11T17:35:36.951Z,99797.65
2022-12-11T17:40:45.267Z,99795.00
2022-12-11T17:45:53.478Z,99793.14
2022-12-11T17:51:03.844Z,99794.45
2022-12-11T17:56:12.412Z,99792.83
2022-12-11T18:01:18.317Z,99793.41
2022-12-11T18:06:25.336Z,99797.89
2022-12-11T18:11:32.484Z,99797.74
2022-12-11T18:16:40.141Z,99799.11
2022-12-11T18:21:47.470Z,99799.98
2022-12-11T18:26:54.643Z,99800.45
2022-12-11T18:32:01.901Z,99802.86
2022-12-11T18:37:09.315Z,99803.98
2022-12-11T18:42:33.346Z,99799.77
2022-12-11T18:47:41.447Z,99802.91
2022-12-11T18:52:49.064Z,99796.41
2022-12-11T18:57:56.406Z,99794.52
2022-12-11T19:03:03.595Z,99795.77
2022-12-11T19:08:11.248Z,99790.36
2022-12-11T19:13:18.578Z,99792.17
2022-12-11T19:18:26.914Z,99792.05
2022-12-11T19:23:33.973Z,99789.21
2022-12-11T19:28:41.587Z,99784.52
2022-12-11T19:33:49.164Z,99787.14
2022-12-11T19:39:01.489Z,99788.25
2022-12-11T19:44:09.399Z,99782.09
2022-12-11T19:49:16.496Z,99779.55
2022-12-11T19:54:23.604Z,99778.22
2022-12-11T19:59:30.634Z,99775.66
2022-12-11T20:04:37.852Z,99773.65
2022-12-11T20:09:44.924Z,99775.45
2022-12-11T20:14:52.006Z,99775.27
2022-12-11T20:19:59.183Z,99771.77
2022-12-11T20:25:07.597Z,99764.90
2022-12-11T20:30:15.716Z,99759.89
2022-12-11T20:35:22.903Z,99755.66
2022-12-11T20:40:29.937Z,99750.60
2022-12-11T20:45:37.069Z,99745.80
2022-12-11T20:50:44.226Z,99741.04
2022-12-11T20:55:51.346Z,99735.84
2022-12-11T21:00:58.598Z,99733.20
2022-12-11T21:06:05.896Z,99736.98
2022-12-11T21:11:12.956Z,99737.55
2022-12-11T21:16:20.345Z,99736.42
2022-12-11T21:21:28.097Z,99734.05
2022-12-11T21:26:35.135Z,99730.05
2022-12-11T21:31:42.315Z,99725.70
2022-12-11T21:36:54.933Z,99725.48
2022-12-11T21:42:03.517Z,99719.59
2022-12-11T21:47:10.668Z,99714.42
2022-12-11T21:52:17.965Z,99707.61
2022-12-11T21:57:26.739Z,99703.02
2022-12-11T22:02:40.449Z,99698.63
2022-12-11T22:07:48.354Z,99701.11
2022-12-11T22:12:55.613Z,99697.31
2022-12-11T22:18:02.729Z,99696.88
2022-12-11T22:23:11.535Z,99690.98
2022-12-11T22:28:18.623Z,99689.50
2022-12-11T22:33:25.899Z,99690.48
2022-12-11T22:38:32.942Z,99693.60
2022-12-11T22:43:40.012Z,99696.38
2022-12-11T22:48:47.033Z,99696.29
2022-12-11T22:53:54.529Z,99700.60
2022-12-11T22:59:01.548Z,99702.76
2022-12-11T23:04:08.960Z,99704.59
2022-12-11T23:09:16.041Z,99704.89
2022-12-11T23:14:23.376Z,99700.56
2022-12-11T23:19:30.601Z,99701.30
2022-12-11T23:24:37.651Z,99705.79
2022-12-11T23:29:44.747Z,99706.15
2022-12-11T23:34:51.784Z,99708.70
2022-12-11T23:39:59.002Z,99707.41
2022-12-11T23:45:07.054Z,99710.22
2022-12-11T23:50:12.555Z,99713.02
2022-12-11T23:55:19.710Z,99708.31
